Time,TemperatureF,DewpointF,PressureIn,WindDirection,WindDirectionDegrees,WindSpeedMPH,WindSpeedGustMPH,Humidity,HourlyPrecipIn,Conditions,Clouds,dailyrainin,SoftwareType,DateUTC
2013-09-18 00:15:00,44.5,39.7,30.06,N/A,-737280,0.0,0.0,83,0.00,,,0.00,Wunderground v.1.12,2013-09-18 04:15:00,
2013-09-18 00:16:00,44.6,39.4,30.07,West,264,0.0,0.0,82,0.00,,,0.00,Wunderground v.1.12,2013-09-18 04:16:00,
2013-09-18 00:45:00,44.2,39.1,30.06,West,264,0.0,0.0,82,0.00,,,0.00,Wunderground v.1.12,2013-09-18 04:45:00,
2013-09-18 01:15:00,44.0,39.2,30.06,N/A,-737280,0.0,0.0,83,0.00,,,0.00,Wunderground v.1.12,2013-09-18 05:15:00,
2013-09-18 01:16:00,43.9,39.1,30.06,West,264,0.0,0.0,83,0.00,,,0.00,Wunderground v.1.12,2013-09-18 05:16:00,
2013-09-18 01:46:00,43.7,39.2,30.06,West,263,0.0,0.0,84,0.00,,,0.00,Wunderground v.1.12,2013-09-18 05:46:00,
2013-09-18 02:15:00,43.4,39.2,30.05,N/A,-737280,0.0,0.0,85,0.00,,,0.00,Wunderground v.1.12,2013-09-18 06:15:00,
2013-09-18 02:16:00,43.5,39.0,30.05,West,264,0.0,0.0,84,0.00,,,0.00,Wunderground v.1.12,2013-09-18 06:16:00,
2013-09-18 02:45:00,43.1,38.9,30.05,West,264,0.0,0.0,85,0.00,,,0.00,Wunderground v.1.12,2013-09-18 06:45:00,
2013-09-18 03:16:00,42.8,38.6,30.05,West,263,0.0,0.0,85,0.00,,,0.00,Wunderground v.1.12,2013-09-18 07:16:00,
2013-09-18 03:45:00,42.5,38.6,30.05,West,264,0.0,0.0,86,0.00,,,0.00,Wunderground v.1.12,2013-09-18 07:45:00,
2013-09-18 04:15:00,42.0,38.1,30.04,N/A,-737280,0.0,0.0,86,0.00,,,0.00,Wunderground v.1.12,2013-09-18 08:15:00,
2013-09-18 04:16:00,42.1,38.2,30.04,West,264,0.0,0.0,86,0.00,,,0.00,Wunderground v.1.12,2013-09-18 08:16:00,
2013-09-18 04:45:00,41.9,38.0,30.03,West,264,0.0,0.0,86,0.00,,,0.00,Wunderground v.1.12,2013-09-18 08:45:00,
2013-09-18 05:15:00,41.4,37.8,30.04,N/A,-737280,0.0,0.0,87,0.00,,,0.00,Wunderground v.1.12,2013-09-18 09:15:00,
2013-09-18 05:16:00,41.5,37.9,30.04,West,264,0.0,0.0,87,0.00,,,0.00,Wunderground v.1.12,2013-09-18 09:16:00,
2013-09-18 05:45:00,41.1,37.5,30.04,West,264,0.0,0.0,87,0.00,,,0.00,Wunderground v.1.12,2013-09-18 09:45:00,
2013-09-18 06:15:00,41.1,37.5,30.04,N/A,-737280,0.0,0.0,87,0.00,,,0.00,Wunderground v.1.12,2013-09-18 10:15:00,
2013-09-18 06:16:00,41.1,37.5,30.04,West,264,0.0,0.0,87,0.00,,,0.00,Wunderground v.1.12,2013-09-18 10:16:00,
2013-09-18 06:45:00,41.0,37.4,30.04,West,264,0.0,0.0,87,0.00,,,0.00,Wunderground v.1.12,2013-09-18 10:45:00,
2013-09-18 07:15:00,41.2,37.6,30.04,N/A,-737280,0.0,0.0,87,0.00,,,0.00,Wunderground v.1.12,2013-09-18 11:15:00,
2013-09-18 07:16:00,41.1,37.5,30.04,West,264,0.0,0.0,87,0.00,,,0.00,Wunderground v.1.12,2013-09-18 11:16:00,
2013-09-18 07:45:00,42.9,39.3,30.03,West,264,0.0,0.0,87,0.00,,,0.00,Wunderground v.1.12,2013-09-18 11:45:00,
2013-09-18 08:15:00,46.0,40.8,30.03,West,270,0.0,2.0,82,0.00,,,0.00,Wunderground v.1.12,2013-09-18 12:15:00,
2013-09-18 08:16:00,46.2,41.9,30.03,West,264,0.0,0.0,85,0.00,,,0.00,Wunderground v.1.12,2013-09-18 12:16:00,
2013-09-18 08:46:00,50.1,43.8,30.03,West,264,0.0,0.0,79,0.00,,,0.00,Wunderground v.1.12,2013-09-18 12:46:00,
2013-09-18 09:15:00,53.7,44.1,30.03,WSW,248,1.0,6.0,70,0.00,,,0.00,Wunderground v.1.12,2013-09-18 13:15:00,
2013-09-18 09:16:00,54.1,44.9,30.03,WSW,250,1.0,1.0,71,0.00,,,0.00,Wunderground v.1.12,2013-09-18 13:16:00,
2013-09-18 09:45:00,57.1,45.4,30.02,SSW,200,0.0,0.0,65,0.00,,,0.00,Wunderground v.1.12,2013-09-18 13:45:00,
2013-09-18 10:15:00,59.2,46.2,30.02,SW,225,1.0,8.0,62,0.00,,,0.00,Wunderground v.1.12,2013-09-18 14:15:00,
2013-09-18 10:46:00,62.0,47.0,30.01,West,269,0.0,0.0,58,0.00,,,0.00,Wunderground v.1.12,2013-09-18 14:46:00,
2013-09-18 11:15:00,63.8,48.3,30.00,West,270,1.0,7.0,57,0.00,,,0.00,Wunderground v.1.12,2013-09-18 15:15:00,
2013-09-18 11:16:00,63.9,47.9,30.00,West,270,0.0,0.0,56,0.00,,,0.00,Wunderground v.1.12,2013-09-18 15:16:00,
2013-09-18 11:46:00,67.4,48.6,29.99,SW,227,0.0,0.0,51,0.00,,,0.00,Wunderground v.1.12,2013-09-18 15:46:00,
2013-09-18 12:15:00,69.9,50.4,29.97,South,180,1.0,8.0,50,0.00,,,0.00,Wunderground v.1.12,2013-09-18 16:15:00,
2013-09-18 12:16:00,70.1,50.6,29.98,South,185,1.0,1.0,50,0.00,,,0.00,Wunderground v.1.12,2013-09-18 16:16:00,
2013-09-18 12:46:00,71.6,48.5,29.97,South,174,0.0,0.0,44,0.00,,,0.00,Wunderground v.1.12,2013-09-18 16:46:00,
2013-09-18 13:15:00,71.1,48.1,29.95,West,270,3.0,10.0,44,0.00,,,0.00,Wunderground v.1.12,2013-09-18 17:15:00,
2013-09-18 13:16:00,71.1,49.3,29.96,West,260,5.0,5.0,46,0.00,,,0.00,Wunderground v.1.12,2013-09-18 17:16:00,
2013-09-18 13:46:00,71.4,48.9,29.95,West,266,0.0,0.0,45,0.00,,,0.00,Wunderground v.1.12,2013-09-18 17:46:00,
2013-09-18 14:15:00,72.0,50.1,29.93,West,270,2.0,7.0,46,0.00,,,0.00,Wunderground v.1.12,2013-09-18 18:15:00,
2013-09-18 14:16:00,72.2,50.3,29.94,West,263,3.0,3.0,46,0.00,,,0.00,Wunderground v.1.12,2013-09-18 18:16:00,
2013-09-18 14:46:00,72.2,49.7,29.93,West,279,1.0,1.0,45,0.00,,,0.00,Wunderground v.1.12,2013-09-18 18:46:00,
2013-09-18 15:15:00,71.6,47.3,29.91,West,270,3.0,14.0,42,0.00,,,0.00,Wunderground v.1.12,2013-09-18 19:15:00,
2013-09-18 15:16:00,71.7,48.6,29.91,SSE,152,1.0,1.0,44,0.00,,,0.00,Wunderground v.1.12,2013-09-18 19:16:00,
2013-09-18 15:46:00,70.9,46.7,29.90,WSW,247,0.0,0.0,42,0.00,,,0.00,Wunderground v.1.12,2013-09-18 19:46:00,
2013-09-18 16:16:00,70.7,47.1,29.89,WNW,289,1.0,1.0,43,0.00,,,0.00,Wunderground v.1.12,2013-09-18 20:16:00,
2013-09-18 16:46:00,70.1,45.9,29.89,West,262,0.0,0.0,42,0.00,,,0.00,Wunderground v.1.12,2013-09-18 20:46:00,
2013-09-18 17:16:00,68.5,46.9,29.89,West,264,5.0,5.0,46,0.00,,,0.00,Wunderground v.1.12,2013-09-18 21:16:00,
2013-09-18 17:46:00,66.5,46.2,29.88,West,270,0.0,0.0,48,0.00,,,0.00,Wunderground v.1.12,2013-09-18 21:46:00,
2013-09-18 18:15:00,64.4,45.9,29.88,West,270,1.0,7.0,51,0.00,,,0.00,Wunderground v.1.12,2013-09-18 22:15:00,
2013-09-18 18:16:00,64.3,45.3,29.88,West,269,2.0,2.0,50,0.00,,,0.00,Wunderground v.1.12,2013-09-18 22:16:00,
2013-09-18 18:46:00,61.8,44.0,29.88,West,273,0.0,0.0,52,0.00,,,0.00,Wunderground v.1.12,2013-09-18 22:46:00,
2013-09-18 19:15:00,59.3,44.5,29.88,N/A,-737280,0.0,0.0,58,0.00,,,0.00,Wunderground v.1.12,2013-09-18 23:15:00,
2013-09-18 19:16:00,59.1,44.3,29.87,West,273,0.0,0.0,58,0.00,,,0.00,Wunderground v.1.12,2013-09-18 23:16:00,
2013-09-18 19:46:00,57.2,42.1,29.88,West,272,0.0,0.0,57,0.00,,,0.00,Wunderground v.1.12,2013-09-18 23:46:00,
2013-09-18 20:15:00,55.4,43.0,29.88,N/A,-737280,0.0,0.0,63,0.00,,,0.00,Wunderground v.1.12,2013-09-19 00:15:00,
2013-09-18 20:16:00,55.3,42.9,29.88,West,273,0.0,0.0,63,0.00,,,0.00,Wunderground v.1.12,2013-09-19 00:16:00,
2013-09-18 20:46:00,53.2,41.3,29.88,West,273,0.0,0.0,64,0.00,,,0.00,Wunderground v.1.12,2013-09-19 00:46:00,
2013-09-18 21:15:00,52.2,41.2,29.88,N/A,-737280,0.0,0.0,66,0.00,,,0.00,Wunderground v.1.12,2013-09-19 01:15:00,
2013-09-18 21:16:00,52.1,40.7,29.88,West,273,0.0,0.0,65,0.00,,,0.00,Wunderground v.1.12,2013-09-19 01:16:00,
2013-09-18 21:46:00,51.2,40.2,29.88,West,273,0.0,0.0,66,0.00,,,0.00,Wunderground v.1.12,2013-09-19 01:46:00,
2013-09-18 22:15:00,51.1,40.5,29.89,N/A,-737280,0.0,0.0,67,0.00,,,0.00,Wunderground v.1.12,2013-09-19 02:15:00,
2013-09-18 22:16:00,51.2,40.6,29.89,West,272,0.0,0.0,67,0.00,,,0.00,Wunderground v.1.12,2013-09-19 02:16:00,
2013-09-18 22:46:00,49.9,40.1,29.88,West,272,0.0,0.0,69,0.00,,,0.00,Wunderground v.1.12,2013-09-19 02:46:00,
2013-09-18 23:15:00,49.7,39.9,29.88,N/A,-737280,0.0,0.0,69,0.00,,,0.00,Wunderground v.1.12,2013-09-19 03:15:00,
2013-09-18 23:16:00,49.5,39.7,29.88,West,272,0.0,0.0,69,0.00,,,0.00,Wunderground v.1.12,2013-09-19 03:16:00,
2013-09-18 23:46:00,49.7,40.3,29.88,West,272,0.0,0.0,70,0.00,,,0.00,Wunderground v.1.12,2013-09-19 03:46:00,